This is the latest recevied weather packets stored in our database for station/object PE1RXF-13. If no packets are shown the sender has not sent any weather packets the latest 10 day(s).
| Time | Temp. | Humidity | Pressure | Rain* | Wind** | Luminosity | Snow |
|---|---|---|---|---|---|---|---|
| 1777562054 | 20° C | 23% | 1027.7 hPa | 0 mm | - | 177 W/m² | - |
| 1777560255 | 20.56° C | 22% | 1028.1 hPa | 0 mm | - | 198 W/m² | - |
| 1777558454 | 21.11° C | 21% | 1028.4 hPa | 0 mm | - | 233 W/m² | - |
| 1777556654 | 21.11° C | 20% | 1028.8 hPa | 0 mm | - | 269 W/m² | - |
| 1777551254 | 19.44° C | 19% | 1029.7 hPa | 0 mm | - | 336 W/m² | - |
| 1777549454 | 19.44° C | 19% | 1030 hPa | 0 mm | - | 334 W/m² | - |
| 1777547654 | 18.33° C | 20% | 1030.2 hPa | 0 mm | - | 343 W/m² | - |
| 1777545855 | 18.89° C | 20% | 1030.5 hPa | 0 mm | - | 327 W/m² | - |
| 1777544054 | 17.78° C | 23% | 1030.8 hPa | 0 mm | - | 294 W/m² | - |
| 1777542254 | 17.22° C | 23% | 1030.9 hPa | 0 mm | - | 245 W/m² | - |
| 1777540455 | 16.67° C | 22% | 1031.2 hPa | 0 mm | - | 207 W/m² | - |
| 1777538655 | 15° C | 25% | 1031.5 hPa | 0 mm | - | 189 W/m² | - |
| 1777536855 | 15° C | 24% | 1031.6 hPa | 0 mm | - | 171 W/m² | - |
| 1777535054 | 14.44° C | 28% | 1031.7 hPa | 0 mm | - | 144 W/m² | - |
| 1777533255 | 13.89° C | 34% | 1031.9 hPa | 0 mm | - | 120 W/m² | - |
| 1777531455 | 12.78° C | 42% | 1031.8 hPa | 0 mm | - | 93 W/m² | - |
| 1777529654 | 10.56° C | 48% | 1031.7 hPa | 0 mm | - | 65 W/m² | - |
| 1777527854 | 5.56° C | 88% | 1031.6 hPa | 0 mm | - | 26 W/m² | - |
| 1777526054 | 3.89° C | 90% | 1031.4 hPa | 0 mm | - | 11 W/m² | - |
| 1777517057 | 3.89° C | 80% | 1030.6 hPa | 0 mm | - | 0 W/m² | - |
| 1777515256 | 4.44° C | 78% | 1030.7 hPa | 0 mm | - | 0 W/m² | - |
| 1777513456 | 3.89° C | 92% | 1030.4 hPa | 0 mm | - | 0 W/m² | - |
| 1777511656 | 4.44° C | 89% | 1030.3 hPa | 0 mm | - | 0 W/m² | - |
| 1777509855 | 5° C | 79% | 1030.1 hPa | 0 mm | - | 0 W/m² | - |
| 1777508055 | 5° C | 94% | 1030.2 hPa | 0 mm | - | 0 W/m² | - |
* Rain latest hour (hover to see other rain measurements)
** Current wind speed in m/s (hover to see current wind gust speed)